createdAt,value
2018-07-05T00:00:15.157Z,3.27
2018-07-05T00:02:48.835Z,4.10
2018-07-05T00:05:22.377Z,4.07
2018-07-05T00:07:55.854Z,4.60
2018-07-05T00:10:29.249Z,3.43
2018-07-05T00:13:02.685Z,3.20
2018-07-05T00:15:36.249Z,3.63
2018-07-05T00:18:09.980Z,3.73
2018-07-05T00:20:43.390Z,3.93
2018-07-05T00:23:17.239Z,4.77
2018-07-05T00:25:50.877Z,3.70
2018-07-05T00:28:24.268Z,4.00
2018-07-05T00:30:57.809Z,5.07
2018-07-05T00:33:31.306Z,3.57
2018-07-05T00:36:04.718Z,3.40
2018-07-05T00:38:38.405Z,4.00
2018-07-05T00:41:11.704Z,4.00
2018-07-05T00:43:45.153Z,3.63
2018-07-05T00:46:19.085Z,3.70
2018-07-05T00:48:52.754Z,3.50
2018-07-05T00:51:26.245Z,4.17
2018-07-05T00:53:59.610Z,4.67
2018-07-05T00:56:32.998Z,5.07
2018-07-05T00:59:06.451Z,4.60
2018-07-05T01:01:40.058Z,4.60
2018-07-05T01:04:13.482Z,4.53
2018-07-05T01:06:47.002Z,3.90
2018-07-05T01:09:20.590Z,4.10
2018-07-05T01:11:54.189Z,4.00
2018-07-05T01:14:27.699Z,4.30
2018-07-05T01:17:01.717Z,4.33
2018-07-05T01:19:35.174Z,3.90
2018-07-05T01:22:08.658Z,3.60
2018-07-05T01:24:42.140Z,4.47
2018-07-05T01:27:16.596Z,4.53
2018-07-05T01:29:50.567Z,4.77
2018-07-05T01:32:24.240Z,4.23
2018-07-05T01:34:57.788Z,3.97
2018-07-05T01:37:31.308Z,3.60
2018-07-05T01:40:04.717Z,4.20
2018-07-05T01:42:38.249Z,3.70
2018-07-05T01:45:11.820Z,3.97
2018-07-05T01:47:45.264Z,3.90
2018-07-05T01:50:19.048Z,3.43
2018-07-05T01:52:52.752Z,3.43
2018-07-05T01:55:26.285Z,4.00
2018-07-05T01:57:59.830Z,3.00
2018-07-05T02:00:33.238Z,3.70
2018-07-05T02:03:06.616Z,3.40
2018-07-05T02:05:40.218Z,3.73
2018-07-05T02:08:13.652Z,3.17
2018-07-05T02:10:47.222Z,3.00
2018-07-05T02:13:20.842Z,3.07
2018-07-05T02:15:54.395Z,3.70
2018-07-05T02:18:28.374Z,3.77
2018-07-05T02:21:01.776Z,3.37
2018-07-05T02:23:35.299Z,3.50
2018-07-05T02:26:08.774Z,3.47
2018-07-05T02:28:42.273Z,3.47
2018-07-05T02:31:15.828Z,3.47
2018-07-05T02:33:49.546Z,4.13
2018-07-05T02:36:23.248Z,4.87
2018-07-05T02:39:02.061Z,3.00
2018-07-05T02:41:35.537Z,3.67
2018-07-05T02:44:09.114Z,4.10
2018-07-05T02:46:42.501Z,3.27
2018-07-05T02:49:16.197Z,4.30
2018-07-05T02:51:49.996Z,4.30
2018-07-05T02:54:23.550Z,3.10
2018-07-05T02:56:58.024Z,4.37
2018-07-05T02:59:31.547Z,3.80
2018-07-05T03:02:05.175Z,5.13
2018-07-05T03:04:38.816Z,4.90
2018-07-05T03:07:12.284Z,4.60
2018-07-05T03:09:45.753Z,4.77
2018-07-05T03:12:19.499Z,4.20
2018-07-05T03:14:52.980Z,3.80
2018-07-05T03:17:26.738Z,3.60
2018-07-05T03:20:00.042Z,4.30
2018-07-05T03:22:33.439Z,3.47
2018-07-05T03:25:06.964Z,3.97
2018-07-05T03:27:40.355Z,8.77
2018-07-05T03:30:13.751Z,3.90
2018-07-05T03:32:47.325Z,3.70
2018-07-05T03:35:21.287Z,4.03
2018-07-05T03:37:54.740Z,3.70
2018-07-05T03:40:28.218Z,3.90
2018-07-05T03:43:01.756Z,3.60
2018-07-05T03:45:35.236Z,3.63
2018-07-05T03:48:08.919Z,4.37
2018-07-05T03:50:42.438Z,3.37
2018-07-05T03:53:16.005Z,4.27
2018-07-05T03:55:49.578Z,3.37
2018-07-05T03:58:23.117Z,4.33
2018-07-05T04:00:56.625Z,3.87
2018-07-05T04:03:30.109Z,3.37
2018-07-05T04:06:03.621Z,3.60
2018-07-05T04:08:37.220Z,3.60
2018-07-05T04:11:10.853Z,3.67
2018-07-05T04:13:44.390Z,3.90
2018-07-05T04:16:18.001Z,3.90
2018-07-05T04:18:51.590Z,3.67
2018-07-05T04:21:25.243Z,3.30
2018-07-05T04:23:58.779Z,3.50
2018-07-05T04:26:32.148Z,3.47
2018-07-05T04:29:05.544Z,3.73
2018-07-05T04:31:39.379Z,3.70
2018-07-05T04:34:12.894Z,4.00
2018-07-05T04:36:46.435Z,4.07
2018-07-05T04:39:20.415Z,4.00
2018-07-05T04:41:54.066Z,4.50
2018-07-05T04:44:27.613Z,7.90
2018-07-05T04:47:01.472Z,4.73
2018-07-05T04:49:35.447Z,5.03
2018-07-05T04:52:09.241Z,4.60
2018-07-05T04:54:42.649Z,3.33
2018-07-05T04:57:16.414Z,3.50
2018-07-05T04:59:50.462Z,4.10
2018-07-05T05:02:24.209Z,4.00
2018-07-05T05:04:57.616Z,3.57
2018-07-05T05:07:31.987Z,3.50
2018-07-05T05:10:05.412Z,3.30
2018-07-05T05:12:38.790Z,3.43
2018-07-05T05:15:12.375Z,5.07
2018-07-05T05:17:46.196Z,3.90
2018-07-05T05:20:20.105Z,4.27
2018-07-05T05:22:53.897Z,4.47
2018-07-05T05:25:27.495Z,4.47
2018-07-05T05:28:00.926Z,3.50
2018-07-05T05:30:34.452Z,3.97
2018-07-05T05:33:08.008Z,4.97
2018-07-05T05:35:41.524Z,4.33
2018-07-05T05:38:14.986Z,3.83
2018-07-05T05:40:48.725Z,4.93
2018-07-05T05:43:22.326Z,3.37
2018-07-05T05:45:56.101Z,3.70
2018-07-05T05:48:29.704Z,3.37
2018-07-05T05:51:03.189Z,3.33
2018-07-05T05:53:36.604Z,3.10
2018-07-05T05:56:10.287Z,3.30
2018-07-05T05:58:43.868Z,3.57
2018-07-05T06:01:17.457Z,2.93
2018-07-05T06:03:51.207Z,2.67
2018-07-05T06:06:24.950Z,2.90
2018-07-05T06:08:58.605Z,3.37
2018-07-05T06:11:32.257Z,3.17
2018-07-05T06:14:05.669Z,3.17
2018-07-05T06:16:39.292Z,3.27
2018-07-05T06:19:12.770Z,3.23
2018-07-05T06:21:46.715Z,3.37
2018-07-05T06:24:20.668Z,3.00
2018-07-05T06:26:54.370Z,3.20
2018-07-05T06:29:27.832Z,3.60
2018-07-05T06:32:01.215Z,2.90
2018-07-05T06:34:34.741Z,4.20
2018-07-05T06:37:08.402Z,3.23
2018-07-05T06:39:41.969Z,3.20
2018-07-05T06:42:15.460Z,3.00
2018-07-05T06:44:49.585Z,3.60
2018-07-05T06:47:23.180Z,3.03
2018-07-05T06:49:56.555Z,3.60
2018-07-05T06:52:30.162Z,3.27
2018-07-05T06:55:03.858Z,3.43
2018-07-05T06:57:37.502Z,3.70
2018-07-05T07:00:11.878Z,2.87
2018-07-05T07:02:45.428Z,6.97
2018-07-05T07:05:19.305Z,4.33
2018-07-05T07:07:52.871Z,3.20
2018-07-05T07:10:26.302Z,3.83
2018-07-05T07:12:59.816Z,3.57
2018-07-05T07:15:33.449Z,2.40
2018-07-05T07:18:06.976Z,3.33
2018-07-05T07:20:40.474Z,4.43
2018-07-05T07:23:14.013Z,3.83
2018-07-05T07:25:47.689Z,3.37
2018-07-05T07:28:21.697Z,3.00
2018-07-05T07:30:55.328Z,3.13
2018-07-05T07:33:28.945Z,3.30
2018-07-05T07:36:02.519Z,4.13
2018-07-05T07:38:36.029Z,3.50
2018-07-05T07:41:10.141Z,3.57
2018-07-05T07:43:37.519Z,4.30
2018-07-05T07:46:04.886Z,5.47
2018-07-05T07:48:32.217Z,3.73
2018-07-05T07:50:59.577Z,3.77
2018-07-05T07:53:27.433Z,4.17
2018-07-05T07:55:55.184Z,4.00
2018-07-05T07:58:22.761Z,5.30
2018-07-05T08:00:50.273Z,5.10
2018-07-05T08:03:17.784Z,5.40
2018-07-05T08:05:45.206Z,4.67
2018-07-05T08:08:13.545Z,5.70
2018-07-05T08:10:40.886Z,6.97
2018-07-05T08:13:08.653Z,5.47
2018-07-05T08:15:35.984Z,5.00
2018-07-05T08:18:03.324Z,6.17
2018-07-05T08:20:30.757Z,3.97
2018-07-05T08:22:58.054Z,6.20
2018-07-05T08:25:25.477Z,8.13
2018-07-05T08:27:53.019Z,6.80
2018-07-05T08:30:20.541Z,5.60
2018-07-05T08:32:48.384Z,5.77
2018-07-05T08:35:16.399Z,5.73
2018-07-05T08:37:43.887Z,4.77
2018-07-05T08:40:11.348Z,5.10
2018-07-05T08:42:38.688Z,5.40
2018-07-05T08:45:06.134Z,4.60
2018-07-05T08:47:33.460Z,5.20
2018-07-05T08:50:00.839Z,5.67
2018-07-05T08:52:28.263Z,6.20
2018-07-05T08:54:55.878Z,5.27
2018-07-05T08:57:23.469Z,4.83
2018-07-05T08:59:51.149Z,4.40
2018-07-05T09:02:18.678Z,13.77
2018-07-05T09:04:46.151Z,4.87
2018-07-05T09:07:13.573Z,7.73
2018-07-05T09:09:40.943Z,3.90
2018-07-05T09:12:08.278Z,4.10
2018-07-05T09:14:35.648Z,4.40
2018-07-05T09:17:03.020Z,4.87
2018-07-05T09:19:30.365Z,4.30
2018-07-05T09:21:57.861Z,4.60
2018-07-05T09:24:25.486Z,4.10
2018-07-05T09:26:53.316Z,4.63
2018-07-05T09:29:20.880Z,5.20
2018-07-05T09:31:48.448Z,4.73
2018-07-05T09:34:16.267Z,4.50
2018-07-05T09:36:43.834Z,4.93
2018-07-05T09:39:11.270Z,3.80
2018-07-05T09:41:39.002Z,4.40
2018-07-05T09:44:06.363Z,4.50
2018-07-05T09:46:33.722Z,4.70
2018-07-05T09:49:01.087Z,4.33
2018-07-05T09:51:28.530Z,4.07
2018-07-05T09:53:56.064Z,4.60
2018-07-05T09:56:23.622Z,4.63
2018-07-05T09:58:51.134Z,4.87
2018-07-05T10:01:18.706Z,4.50
2018-07-05T10:03:46.217Z,4.73
2018-07-05T10:06:13.707Z,5.47
2018-07-05T10:08:41.226Z,5.03
2018-07-05T10:11:08.570Z,5.50
2018-07-05T10:13:36.113Z,4.40
2018-07-05T10:16:03.277Z,3.77
2018-07-05T10:18:30.622Z,3.60
2018-07-05T10:20:58.127Z,3.87
2018-07-05T10:23:25.588Z,3.50
2018-07-05T10:25:54.964Z,3.53
2018-07-05T10:28:22.398Z,4.50
2018-07-05T10:30:55.961Z,4.00
2018-07-05T10:33:29.506Z,3.80
2018-07-05T10:35:56.961Z,5.60
2018-07-05T10:38:24.423Z,4.30
2018-07-05T10:40:57.999Z,6.23
2018-07-05T10:43:31.397Z,7.70
2018-07-05T10:46:04.775Z,8.20
2018-07-05T10:48:38.404Z,7.40
2018-07-05T10:51:11.817Z,7.40
2018-07-05T10:53:45.285Z,7.23
2018-07-05T10:56:19.143Z,4.60
2018-07-05T10:58:52.997Z,3.70
2018-07-05T11:01:26.731Z,6.43
2018-07-05T11:04:00.268Z,18.90
2018-07-05T11:06:33.858Z,11.80
2018-07-05T11:09:07.767Z,7.53
2018-07-05T11:11:41.377Z,4.40
2018-07-05T11:14:14.874Z,5.00
2018-07-05T11:16:48.455Z,9.73
2018-07-05T11:19:22.006Z,9.57
2018-07-05T11:21:55.551Z,16.70
2018-07-05T11:24:29.040Z,8.93
2018-07-05T11:27:02.458Z,14.30
2018-07-05T11:29:35.964Z,12.37
2018-07-05T11:32:09.328Z,11.90
2018-07-05T11:34:43.094Z,10.20
2018-07-05T11:37:16.717Z,6.33
2018-07-05T11:39:50.416Z,11.20
2018-07-05T11:42:24.072Z,6.03
2018-07-05T11:44:57.817Z,9.57
2018-07-05T11:47:31.152Z,7.30
2018-07-05T11:50:04.562Z,14.23
2018-07-05T11:52:37.881Z,4.93
2018-07-05T11:55:11.336Z,4.50
2018-07-05T11:57:44.937Z,8.20
2018-07-05T12:00:18.642Z,4.80
2018-07-05T12:02:52.134Z,7.37
2018-07-05T12:05:25.838Z,7.70
2018-07-05T12:07:59.468Z,12.80
2018-07-05T12:10:32.941Z,4.83
2018-07-05T12:13:06.468Z,6.50
2018-07-05T12:15:39.994Z,10.33
2018-07-05T12:18:13.354Z,6.70
2018-07-05T12:20:47.135Z,6.03
2018-07-05T12:23:20.802Z,6.57
2018-07-05T12:25:54.317Z,7.83
2018-07-05T12:28:27.632Z,18.00
2018-07-05T12:31:01.391Z,9.57
2018-07-05T12:33:34.762Z,6.80
2018-07-05T12:36:08.905Z,7.77
2018-07-05T12:38:42.325Z,7.23
2018-07-05T12:41:15.654Z,7.00
2018-07-05T12:43:49.519Z,7.57
2018-07-05T12:46:23.226Z,7.80
2018-07-05T12:48:56.781Z,7.80
2018-07-05T12:51:30.300Z,8.17
2018-07-05T12:54:03.804Z,9.40
2018-07-05T12:56:37.433Z,9.23
2018-07-05T12:59:11.099Z,9.93
2018-07-05T13:01:44.621Z,10.17
2018-07-05T13:04:18.286Z,12.67
2018-07-05T13:06:51.746Z,10.70
2018-07-05T13:09:25.349Z,11.07
2018-07-05T13:11:58.873Z,11.20
2018-07-05T13:14:32.284Z,10.30
2018-07-05T13:17:05.694Z,14.43
2018-07-05T13:19:39.305Z,15.33
2018-07-05T13:22:12.832Z,13.90
2018-07-05T13:24:46.612Z,15.83
2018-07-05T13:27:20.263Z,14.90
2018-07-05T13:29:53.917Z,13.60
2018-07-05T13:32:27.431Z,11.83
2018-07-05T13:35:00.849Z,10.60
2018-07-05T13:37:34.577Z,10.23
2018-07-05T13:40:08.249Z,8.73
2018-07-05T13:42:41.700Z,8.67
2018-07-05T13:45:15.310Z,7.97
2018-07-05T13:47:48.864Z,6.50
2018-07-05T13:50:22.546Z,6.13
2018-07-05T13:52:56.114Z,6.23
2018-07-05T13:55:29.662Z,4.20
2018-07-05T13:58:03.203Z,3.20
2018-07-05T14:00:36.910Z,3.50
2018-07-05T14:03:10.392Z,2.90
2018-07-05T14:05:43.941Z,3.37
2018-07-05T14:08:17.896Z,3.43
2018-07-05T14:10:51.666Z,4.50
2018-07-05T14:13:25.173Z,3.60
2018-07-05T14:15:58.761Z,4.00
2018-07-05T14:18:32.257Z,4.00
2018-07-05T14:21:05.798Z,4.70
2018-07-05T14:23:39.459Z,5.13
2018-07-05T14:26:12.790Z,4.20
2018-07-05T14:28:46.453Z,5.00
2018-07-05T14:31:20.203Z,4.27
2018-07-05T14:33:53.717Z,4.00
2018-07-05T14:36:27.275Z,5.17
2018-07-05T14:39:01.674Z,4.90
2018-07-05T14:41:35.347Z,4.47
2018-07-05T14:44:09.020Z,4.30
2018-07-05T14:46:42.393Z,4.30
2018-07-05T14:49:15.892Z,4.37
2018-07-05T14:51:49.967Z,4.60
2018-07-05T14:54:23.424Z,3.87
2018-07-05T14:56:56.948Z,4.00
2018-07-05T14:59:30.414Z,3.30
2018-07-05T15:02:03.916Z,3.37
2018-07-05T15:04:37.503Z,3.70
2018-07-05T15:07:11.042Z,3.63
2018-07-05T15:09:44.647Z,3.43
2018-07-05T15:12:18.444Z,3.70
2018-07-05T15:14:52.071Z,4.17
2018-07-05T15:17:26.976Z,4.10
2018-07-05T15:20:00.762Z,4.60
2018-07-05T15:22:34.367Z,4.87
2018-07-05T15:25:07.984Z,4.23
2018-07-05T15:27:42.524Z,3.43
2018-07-05T15:30:16.517Z,3.60
2018-07-05T15:32:50.272Z,5.50
2018-07-05T15:35:24.929Z,4.70
2018-07-05T15:37:58.452Z,4.30
2018-07-05T15:40:32.001Z,4.90
2018-07-05T15:43:05.907Z,4.43
2018-07-05T15:45:39.585Z,5.17
2018-07-05T15:48:13.158Z,4.40
2018-07-05T15:50:46.761Z,4.80
2018-07-05T15:53:20.343Z,5.60
2018-07-05T15:55:54.035Z,4.33
2018-07-05T15:58:27.570Z,4.50
2018-07-05T16:01:01.345Z,4.30
2018-07-05T16:03:34.761Z,3.67
2018-07-05T16:06:08.617Z,4.13
2018-07-05T16:08:42.321Z,3.57
2018-07-05T16:11:16.010Z,3.17
2018-07-05T16:13:49.740Z,3.80
2018-07-05T16:16:23.398Z,3.10
2018-07-05T16:18:56.858Z,3.40
2018-07-05T16:21:30.421Z,3.83
2018-07-05T16:24:03.835Z,2.87
2018-07-05T16:26:37.495Z,2.50
2018-07-05T16:29:11.153Z,3.20
2018-07-05T16:31:44.684Z,3.50
2018-07-05T16:34:18.466Z,3.37
2018-07-05T16:36:52.174Z,3.40
2018-07-05T16:39:26.232Z,3.73
2018-07-05T16:41:59.855Z,2.83
2018-07-05T16:44:33.466Z,3.20
2018-07-05T16:47:06.942Z,3.80
2018-07-05T16:49:40.938Z,3.87
2018-07-05T16:52:14.724Z,2.93
2018-07-05T16:54:48.365Z,2.80
2018-07-05T16:57:22.010Z,2.90
2018-07-05T16:59:55.637Z,2.63
2018-07-05T17:02:29.223Z,2.90
2018-07-05T17:05:02.782Z,3.63
2018-07-05T17:07:36.384Z,2.93
2018-07-05T17:10:09.944Z,2.90
2018-07-05T17:12:43.528Z,3.50
2018-07-05T17:15:17.323Z,3.67
2018-07-05T17:17:50.993Z,2.90
2018-07-05T17:20:24.622Z,4.73
2018-07-05T17:22:58.182Z,3.07
2018-07-05T17:25:31.827Z,3.33
2018-07-05T17:28:05.325Z,6.60
2018-07-05T17:30:38.770Z,3.57
2018-07-05T17:33:12.331Z,3.53
2018-07-05T17:35:46.045Z,3.80
2018-07-05T17:38:19.705Z,3.87
2018-07-05T17:40:53.340Z,3.30
2018-07-05T17:43:26.824Z,4.67
2018-07-05T17:46:00.267Z,3.30
2018-07-05T17:48:33.854Z,3.87
2018-07-05T17:51:07.434Z,2.80
2018-07-05T17:53:41.069Z,4.20
2018-07-05T17:56:14.481Z,3.83
2018-07-05T17:58:48.080Z,4.03
2018-07-05T18:01:21.608Z,4.33
2018-07-05T18:03:55.188Z,3.80
2018-07-05T18:06:28.596Z,3.90
2018-07-05T18:09:02.143Z,7.13
2018-07-05T18:11:39.180Z,11.20
2018-07-05T18:14:12.761Z,3.43
2018-07-05T18:16:46.151Z,4.33
2018-07-05T18:19:19.781Z,3.57
2018-07-05T18:21:54.488Z,3.20
2018-07-05T18:24:28.006Z,3.20
2018-07-05T18:27:01.598Z,3.67
2018-07-05T18:29:34.932Z,2.83
2018-07-05T18:32:08.386Z,2.80
2018-07-05T18:34:42.054Z,2.30
2018-07-05T18:37:15.616Z,3.00
2018-07-05T18:39:49.170Z,2.60
2018-07-05T18:42:22.680Z,2.53
2018-07-05T18:44:56.321Z,2.70
2018-07-05T18:47:29.989Z,3.50
2018-07-05T18:50:03.525Z,2.80
2018-07-05T18:52:36.983Z,2.60
2018-07-05T18:55:10.769Z,3.20
2018-07-05T18:57:44.324Z,2.20
2018-07-05T19:00:18.110Z,3.33
2018-07-05T19:02:51.685Z,3.27
2018-07-05T19:05:25.183Z,3.30
2018-07-05T19:07:58.769Z,2.90
2018-07-05T19:10:32.427Z,3.20
2018-07-05T19:13:05.967Z,2.30
2018-07-05T19:15:39.431Z,4.30
2018-07-05T19:18:15.556Z,2.83
2018-07-05T19:20:49.247Z,3.07
2018-07-05T19:23:22.965Z,2.53
2018-07-05T19:25:56.593Z,2.80
2018-07-05T19:28:29.940Z,4.60
2018-07-05T19:31:03.486Z,2.43
2018-07-05T19:33:38.064Z,2.43
2018-07-05T19:36:13.661Z,2.63
2018-07-05T19:38:47.430Z,2.83
2018-07-05T19:41:20.865Z,3.60
2018-07-05T19:43:54.208Z,2.70
2018-07-05T19:46:27.855Z,2.63
2018-07-05T19:49:02.484Z,2.83
2018-07-05T19:51:35.986Z,2.90
2018-07-05T19:54:09.537Z,2.87
2018-07-05T19:56:43.293Z,3.03
2018-07-05T19:59:16.866Z,3.70
2018-07-05T20:01:50.417Z,3.60
2018-07-05T20:04:24.046Z,3.10
2018-07-05T20:06:57.682Z,4.10
2018-07-05T20:09:31.184Z,3.47
2018-07-05T20:12:05.644Z,4.00
2018-07-05T20:14:39.278Z,4.30
2018-07-05T20:17:12.834Z,5.03
2018-07-05T20:19:46.540Z,4.70
2018-07-05T20:22:20.294Z,4.80
2018-07-05T20:24:53.855Z,4.27
2018-07-05T20:27:27.268Z,4.43
2018-07-05T20:30:00.699Z,5.20
2018-07-05T20:32:34.322Z,5.50
2018-07-05T20:35:07.863Z,4.97
2018-07-05T20:37:41.457Z,5.10
2018-07-05T20:40:15.352Z,5.73
2018-07-05T20:42:48.937Z,6.20
2018-07-05T20:45:22.428Z,6.40
2018-07-05T20:47:55.933Z,5.00
2018-07-05T20:50:29.381Z,5.17
2018-07-05T20:53:02.994Z,5.47
2018-07-05T20:55:36.406Z,6.00
2018-07-05T20:58:09.852Z,5.83
2018-07-05T21:00:43.298Z,6.90
2018-07-05T21:03:16.976Z,7.03
2018-07-05T21:05:50.487Z,6.40
2018-07-05T21:08:24.066Z,8.10
2018-07-05T21:10:57.497Z,7.37
2018-07-05T21:13:31.085Z,7.00
2018-07-05T21:16:04.718Z,7.87
2018-07-05T21:18:38.158Z,6.83
2018-07-05T21:21:11.725Z,6.30
2018-07-05T21:23:45.131Z,6.87
2018-07-05T21:26:18.639Z,6.73
2018-07-05T21:28:52.324Z,7.33
2018-07-05T21:31:25.954Z,5.97
2018-07-05T21:33:59.495Z,6.20
2018-07-05T21:36:34.005Z,6.00
2018-07-05T21:39:07.393Z,5.70
2018-07-05T21:41:40.974Z,6.70
2018-07-05T21:44:14.450Z,5.80
2018-07-05T21:46:48.091Z,5.63
2018-07-05T21:49:21.586Z,6.47
2018-07-05T21:51:55.079Z,6.07
2018-07-05T21:54:28.590Z,6.77
2018-07-05T21:57:02.968Z,5.87
2018-07-05T21:59:36.499Z,6.90
2018-07-05T22:02:10.089Z,7.30
2018-07-05T22:04:43.684Z,6.27
2018-07-05T22:07:17.530Z,6.10
2018-07-05T22:09:51.114Z,6.23
2018-07-05T22:12:24.493Z,5.93
2018-07-05T22:14:58.716Z,6.30
2018-07-05T22:17:37.611Z,5.87
2018-07-05T22:20:16.520Z,5.20
2018-07-05T22:22:55.503Z,5.87
2018-07-05T22:25:34.506Z,6.47
2018-07-05T22:28:13.329Z,5.60
2018-07-05T22:30:52.155Z,5.70
2018-07-05T22:33:25.837Z,6.20
2018-07-05T22:35:59.290Z,6.50
2018-07-05T22:38:32.769Z,5.67
2018-07-05T22:41:06.410Z,5.77
2018-07-05T22:43:40.142Z,6.50
2018-07-05T22:46:13.749Z,6.87
2018-07-05T22:48:47.200Z,6.30
2018-07-05T22:51:20.896Z,6.70
2018-07-05T22:53:54.728Z,7.07
2018-07-05T22:56:28.190Z,7.00
2018-07-05T22:59:01.656Z,6.93
2018-07-05T23:01:35.987Z,7.43
2018-07-05T23:04:09.593Z,7.20
2018-07-05T23:06:43.166Z,7.67
2018-07-05T23:09:16.829Z,6.73
2018-07-05T23:11:51.473Z,7.20
2018-07-05T23:14:25.024Z,6.87
2018-07-05T23:16:58.653Z,8.60
2018-07-05T23:19:32.017Z,8.43
2018-07-05T23:22:06.475Z,9.60
2018-07-05T23:24:40.001Z,8.77
2018-07-05T23:27:13.513Z,8.33
2018-07-05T23:29:49.309Z,7.03
2018-07-05T23:32:22.935Z,9.17
2018-07-05T23:34:56.490Z,8.17
2018-07-05T23:37:30.077Z,8.57
2018-07-05T23:40:03.595Z,8.60
2018-07-05T23:42:37.018Z,8.47
2018-07-05T23:45:10.384Z,9.37
2018-07-05T23:47:43.892Z,9.17
2018-07-05T23:50:17.405Z,8.53
2018-07-05T23:52:51.061Z,8.23
2018-07-05T23:55:24.593Z,7.43
2018-07-05T23:57:58.201Z,8.27
